To NAV CANADA Home Page Login to a new session Search on AWWS site Feedback and Comments Disclaimer Vers la page française équivalente Tips FAQ What's new on the site To the Forecasts and Observations / NOTAM section To "File a Flight Plan" website Publications and other links Update of the User's profile FIC Telephone Numbers My Weather Data Folder Route Weather Data Regional Weather Data Local Weather Data To the Forecasts and Observations / NOTAM section
Request Generated 09/05/2015 at 14:12:33 UTC . Weather information available at that time is displayed.

METAR/TAF

FORT CHIPEWYAN/AB    (show WxCam)

METAR CYPY 051400Z AUTO 06002KT 9SM CLR 05/05 A3018 RMK SLP230=
SPECI CYPY 051347Z AUTO VRB02KT 6SM BR FEW001 04/04 A3017 RMK SLP229=
SPECI CYPY 051346Z AUTO VRB02KT 4SM BR FEW001 04/04 A3017 RMK SLP229=
SPECI CYPY 051344Z AUTO VRB02KT 1 1/2SM BR FEW001 04/04 A3017 RMK
SLP229=
SPECI CYPY 051323Z AUTO VRB02KT 1SM BR CLR 02/02 A3018 RMK SLP230=
SPECI CYPY 051322Z AUTO VRB02KT 3SM BR CLR 02/02 A3018 RMK SLP230=
METAR CYPY 051300Z AUTO 07002KT 9SM SCT100 02/02 A3018 RMK SLP230=
SPECI CYPY 051244Z AUTO 05003KT 9SM OVC100 02/02 A3018 RMK SLP230=
SPECI CYPY 051243Z AUTO 05003KT 5SM BR OVC100 02/02 A3018 RMK SLP230=
SPECI CYPY 051242Z AUTO 04003KT 2 1/2SM BR OVC100 02/02 A3018 RMK
SLP230=
SPECI CYPY 051240Z AUTO 04002KT 1 3/4SM BR OVC100 02/02 A3018 RMK
SLP230=
SPECI CYPY 051230Z AUTO 04003KT 030V120 1SM BR OVC100 02/02 A3018 RMK
SLP230=
SPECI CYPY 051229Z AUTO 04003KT 030V120 1 3/4SM BR OVC100 02/02 A3018
RMK SLP230=
METAR CYPY 051200Z AUTO 10002KT 9SM BKN100 00/00 A3017 RMK SLP230=

TAF CYPY 051239Z 0513/0522 VRB03KT P6SM BKN100 TEMPO 0513/0516 1SM BR
FM051600 18008KT P6SM SCT100
RMK FCST BASED ON AUTO OBS. NXT FCST BY 051800Z=
Your time UTC time
Weather data provided by Environment Canada and NAV CANADA